createdAt,value
2017-11-27T00:00:25.053Z,8.80
2017-11-27T00:02:52.477Z,8.70
2017-11-27T00:05:19.935Z,8.20
2017-11-27T00:07:47.389Z,7.80
2017-11-27T00:15:21.496Z,8.20
2017-11-27T00:17:48.915Z,7.50
2017-11-27T00:20:16.348Z,7.40
2017-11-27T00:22:43.777Z,7.80
2017-11-27T00:25:11.218Z,7.87
2017-11-27T00:27:38.653Z,7.78
2017-11-27T00:30:06.048Z,8.00
2017-11-27T00:32:33.553Z,8.57
2017-11-27T00:35:00.999Z,7.70
2017-11-27T00:37:28.457Z,7.25
2017-11-27T00:39:55.893Z,7.68
2017-11-27T00:42:23.312Z,7.60
2017-11-27T00:44:50.744Z,7.32
2017-11-27T00:47:18.169Z,7.97
2017-11-27T00:49:45.585Z,7.95
2017-11-27T00:52:13.012Z,8.00
2017-11-27T00:54:40.449Z,7.95
2017-11-27T00:57:07.887Z,7.60
2017-11-27T00:59:35.332Z,7.30
2017-11-27T01:02:02.946Z,8.07
2017-11-27T01:04:31.439Z,8.63
2017-11-27T01:06:58.888Z,8.50
2017-11-27T01:09:26.320Z,8.13
2017-11-27T01:11:53.741Z,8.20
2017-11-27T01:14:21.165Z,7.78
2017-11-27T01:16:48.604Z,8.73
2017-11-27T01:19:16.134Z,8.80
2017-11-27T01:21:43.561Z,8.43
2017-11-27T01:24:10.990Z,8.20
2017-11-27T01:26:38.425Z,7.93
2017-11-27T01:29:05.841Z,7.47
2017-11-27T01:31:33.269Z,7.60
2017-11-27T01:34:00.680Z,8.63
2017-11-27T01:36:28.112Z,8.40
2017-11-27T01:38:55.536Z,8.18
2017-11-27T01:41:22.955Z,8.10
2017-11-27T01:43:50.384Z,7.30
2017-11-27T01:46:17.852Z,7.87
2017-11-27T01:48:45.276Z,8.32
2017-11-27T01:51:12.699Z,8.77
2017-11-27T01:53:40.141Z,7.90
2017-11-27T01:56:07.622Z,8.43
2017-11-27T01:58:35.076Z,8.20
2017-11-27T02:01:02.529Z,8.20
2017-11-27T02:03:29.949Z,8.25
2017-11-27T02:05:57.363Z,8.57
2017-11-27T02:08:24.792Z,8.32
2017-11-27T02:10:52.220Z,10.15
2017-11-27T02:13:19.647Z,8.93
2017-11-27T02:15:47.062Z,9.98
2017-11-27T02:18:14.481Z,9.35
2017-11-27T02:20:41.912Z,9.88
2017-11-27T02:23:09.335Z,8.50
2017-11-27T02:25:36.765Z,9.95
2017-11-27T02:28:04.180Z,9.82
2017-11-27T02:30:31.605Z,8.70
2017-11-27T02:32:59.047Z,8.80
2017-11-27T02:35:26.469Z,8.85
2017-11-27T02:37:53.898Z,9.07
2017-11-27T02:40:21.333Z,8.15
2017-11-27T02:42:48.741Z,8.88
2017-11-27T02:45:16.168Z,9.40
2017-11-27T02:47:43.595Z,9.38
2017-11-27T02:50:11.022Z,8.85
2017-11-27T02:52:38.437Z,8.20
2017-11-27T02:55:05.869Z,9.40
2017-11-27T02:57:33.285Z,8.90
2017-11-27T03:00:00.703Z,9.80
2017-11-27T03:02:28.117Z,9.65
2017-11-27T03:04:56.734Z,8.35
2017-11-27T03:07:24.296Z,9.52
2017-11-27T03:09:51.718Z,8.70
2017-11-27T03:12:19.140Z,8.07
2017-11-27T03:14:46.560Z,8.70
2017-11-27T03:17:13.993Z,8.05
2017-11-27T03:19:41.407Z,7.43
2017-11-27T03:22:08.830Z,8.38
2017-11-27T03:24:36.257Z,8.90
2017-11-27T03:27:03.673Z,7.97
2017-11-27T03:29:31.116Z,8.32
2017-11-27T03:31:58.546Z,8.48
2017-11-27T03:34:25.972Z,7.62
2017-11-27T03:36:53.400Z,7.20
2017-11-27T03:39:20.821Z,8.27
2017-11-27T03:41:48.254Z,8.75
2017-11-27T03:44:15.680Z,9.50
2017-11-27T03:46:43.101Z,8.50
2017-11-27T03:49:10.527Z,8.30
2017-11-27T03:51:37.941Z,7.80
2017-11-27T03:54:05.352Z,7.53
2017-11-27T03:56:32.787Z,8.20
2017-11-27T03:59:00.206Z,7.43
2017-11-27T04:01:27.628Z,8.88
2017-11-27T04:03:55.049Z,8.43
2017-11-27T04:06:22.464Z,7.47
2017-11-27T04:08:49.880Z,7.45
2017-11-27T04:11:17.310Z,8.48
2017-11-27T04:13:44.728Z,7.05
2017-11-27T04:16:12.156Z,8.13
2017-11-27T04:18:39.596Z,7.57
2017-11-27T04:21:07.008Z,8.45
2017-11-27T04:23:34.444Z,8.48
2017-11-27T04:26:01.857Z,8.80
2017-11-27T04:28:29.283Z,8.40
2017-11-27T04:30:56.709Z,8.70
2017-11-27T04:33:24.132Z,8.15
2017-11-27T04:35:51.574Z,9.50
2017-11-27T04:38:19.024Z,9.00
2017-11-27T04:40:46.442Z,8.50
2017-11-27T04:43:13.873Z,8.57
2017-11-27T04:45:41.277Z,7.70
2017-11-27T04:48:08.720Z,8.40
2017-11-27T04:50:36.137Z,9.13
2017-11-27T04:53:03.552Z,8.68
2017-11-27T04:55:30.981Z,8.50
2017-11-27T04:57:58.399Z,9.13
2017-11-27T05:00:25.825Z,7.95
2017-11-27T05:02:53.249Z,8.20
2017-11-27T05:05:20.681Z,8.70
2017-11-27T05:07:48.148Z,9.52
2017-11-27T05:10:15.573Z,8.85
2017-11-27T05:12:42.994Z,7.43
2017-11-27T05:15:10.425Z,8.35
2017-11-27T05:17:37.852Z,8.48
2017-11-27T05:20:05.317Z,7.25
2017-11-27T05:22:32.747Z,7.80
2017-11-27T05:25:00.164Z,7.45
2017-11-27T05:27:27.588Z,8.25
2017-11-27T05:29:55.029Z,7.78
2017-11-27T05:32:22.449Z,8.15
2017-11-27T05:34:49.869Z,7.50
2017-11-27T05:37:17.301Z,8.32
2017-11-27T05:39:44.731Z,7.87
2017-11-27T05:42:12.156Z,8.63
2017-11-27T05:44:39.586Z,7.72
2017-11-27T05:47:07.033Z,7.65
2017-11-27T05:49:34.454Z,8.05
2017-11-27T05:52:01.882Z,8.30
2017-11-27T05:54:29.321Z,7.45
2017-11-27T05:56:56.729Z,6.55
2017-11-27T05:59:24.156Z,7.78
2017-11-27T06:01:51.592Z,8.32
2017-11-27T06:04:19.017Z,9.45
2017-11-27T06:06:46.441Z,6.72
2017-11-27T06:09:13.868Z,7.65
2017-11-27T06:11:41.310Z,8.20
2017-11-27T06:14:08.724Z,8.25
2017-11-27T06:16:36.152Z,6.80
2017-11-27T06:19:03.564Z,9.13
2017-11-27T06:21:30.993Z,8.52
2017-11-27T06:23:58.408Z,8.55
2017-11-27T06:26:25.901Z,7.57
2017-11-27T06:28:53.338Z,8.65
2017-11-27T06:31:20.752Z,8.20
2017-11-27T06:33:48.184Z,8.90
2017-11-27T06:36:15.614Z,9.82
2017-11-27T06:38:43.120Z,9.13
2017-11-27T06:41:10.548Z,11.38
2017-11-27T06:43:37.984Z,10.18
2017-11-27T06:46:05.418Z,9.45
2017-11-27T06:48:32.836Z,8.27
2017-11-27T06:51:00.260Z,10.02
2017-11-27T06:53:27.698Z,10.52
2017-11-27T06:55:55.125Z,8.27
2017-11-27T06:58:22.575Z,10.52
2017-11-27T07:00:50.028Z,10.50
2017-11-27T07:03:17.464Z,9.65
2017-11-27T07:05:44.888Z,9.30
2017-11-27T07:08:12.310Z,11.63
2017-11-27T07:10:39.797Z,9.88
2017-11-27T07:13:07.241Z,11.10
2017-11-27T07:15:34.679Z,10.43
2017-11-27T07:18:02.084Z,9.57
2017-11-27T07:20:29.525Z,10.35
2017-11-27T07:22:56.970Z,11.30
2017-11-27T07:25:24.376Z,9.23
2017-11-27T07:27:51.808Z,9.15
2017-11-27T07:30:19.233Z,9.98
2017-11-27T07:32:47.812Z,9.95
2017-11-27T07:35:15.261Z,9.95
2017-11-27T07:37:48.172Z,10.85
2017-11-27T07:40:17.052Z,8.63
2017-11-27T07:42:44.581Z,10.05
2017-11-27T07:45:12.054Z,8.68
2017-11-27T07:47:39.498Z,8.55
2017-11-27T07:50:06.940Z,8.60
2017-11-27T07:52:34.486Z,8.70
2017-11-27T07:55:01.919Z,9.68
2017-11-27T07:57:29.352Z,7.47
2017-11-27T07:59:56.793Z,11.95
2017-11-27T08:02:25.071Z,11.27
2017-11-27T08:04:52.571Z,10.57
2017-11-27T08:07:20.019Z,10.05
2017-11-27T08:09:47.650Z,9.63
2017-11-27T08:12:15.257Z,8.23
2017-11-27T08:14:42.686Z,8.75
2017-11-27T08:17:10.104Z,8.63
2017-11-27T08:19:37.527Z,9.45
2017-11-27T08:22:04.956Z,8.95
2017-11-27T08:24:32.439Z,8.73
2017-11-27T08:26:59.877Z,8.65
2017-11-27T08:29:27.296Z,8.00
2017-11-27T08:31:54.708Z,7.75
2017-11-27T08:34:22.141Z,7.43
2017-11-27T08:36:49.568Z,10.85
2017-11-27T08:39:16.997Z,7.40
2017-11-27T08:41:44.413Z,7.55
2017-11-27T08:44:11.837Z,7.32
2017-11-27T08:46:39.341Z,7.53
2017-11-27T08:49:06.773Z,8.25
2017-11-27T08:51:34.198Z,6.28
2017-11-27T08:54:01.635Z,8.48
2017-11-27T08:56:29.184Z,6.70
2017-11-27T08:58:56.637Z,6.80
2017-11-27T09:01:24.239Z,7.65
2017-11-27T09:03:51.683Z,5.97
2017-11-27T09:06:19.116Z,6.10
2017-11-27T09:08:46.544Z,6.87
2017-11-27T09:11:13.965Z,5.85
2017-11-27T09:13:41.395Z,5.95
2017-11-27T09:16:08.831Z,7.40
2017-11-27T09:18:36.260Z,6.70
2017-11-27T09:21:03.684Z,6.68
2017-11-27T09:23:31.105Z,6.53
2017-11-27T09:25:58.529Z,6.75
2017-11-27T09:28:26.036Z,7.05
2017-11-27T09:30:53.499Z,7.68
2017-11-27T09:33:20.952Z,6.60
2017-11-27T09:35:48.414Z,8.40
2017-11-27T09:38:15.844Z,6.10
2017-11-27T09:40:43.284Z,5.53
2017-11-27T09:43:10.692Z,6.20
2017-11-27T09:45:38.107Z,5.55
2017-11-27T09:48:05.553Z,6.28
2017-11-27T09:50:32.987Z,6.80
2017-11-27T09:53:00.412Z,6.45
2017-11-27T09:55:27.889Z,6.37
2017-11-27T09:57:55.318Z,6.10
2017-11-27T10:00:22.748Z,6.05
2017-11-27T10:02:50.182Z,5.62
2017-11-27T10:05:17.644Z,5.72
2017-11-27T10:07:45.090Z,6.20
2017-11-27T10:10:12.510Z,5.30
2017-11-27T10:12:39.948Z,5.45
2017-11-27T10:15:07.487Z,5.47
2017-11-27T10:17:34.918Z,5.85
2017-11-27T10:20:02.330Z,5.80
2017-11-27T10:22:29.809Z,6.43
2017-11-27T10:24:57.245Z,5.93
2017-11-27T10:27:24.696Z,6.28
2017-11-27T10:29:52.172Z,6.75
2017-11-27T10:32:19.602Z,6.78
2017-11-27T10:34:47.093Z,5.87
2017-11-27T10:37:14.585Z,6.62
2017-11-27T10:39:42.014Z,6.25
2017-11-27T10:42:09.443Z,6.07
2017-11-27T10:44:36.872Z,7.35
2017-11-27T10:47:04.298Z,6.93
2017-11-27T10:49:31.736Z,5.50
2017-11-27T10:51:59.165Z,6.55
2017-11-27T10:54:26.576Z,6.10
2017-11-27T10:56:54.017Z,8.07
2017-11-27T10:59:21.431Z,6.28
2017-11-27T11:01:48.876Z,6.55
2017-11-27T11:04:16.313Z,6.55
2017-11-27T11:06:43.733Z,5.15
2017-11-27T11:09:11.164Z,6.85
2017-11-27T11:11:38.590Z,7.40
2017-11-27T11:14:06.023Z,6.15
2017-11-27T11:16:33.452Z,7.28
2017-11-27T11:19:00.885Z,6.10
2017-11-27T11:21:28.322Z,6.65
2017-11-27T11:23:55.748Z,6.45
2017-11-27T11:26:23.190Z,5.90
2017-11-27T11:28:50.605Z,6.00
2017-11-27T11:31:18.041Z,6.40
2017-11-27T11:33:45.465Z,6.35
2017-11-27T11:36:12.879Z,7.37
2017-11-27T11:38:40.313Z,6.35
2017-11-27T11:41:07.751Z,8.00
2017-11-27T11:43:35.187Z,7.20
2017-11-27T11:46:02.617Z,8.38
2017-11-27T11:48:30.054Z,7.37
2017-11-27T11:50:57.483Z,6.57
2017-11-27T11:53:24.929Z,6.62
2017-11-27T11:55:52.356Z,6.40
2017-11-27T11:58:19.833Z,6.80
2017-11-27T12:00:47.274Z,5.93
2017-11-27T12:03:14.698Z,7.12
2017-11-27T12:05:42.132Z,6.75
2017-11-27T12:08:09.550Z,6.22
2017-11-27T12:10:36.981Z,5.90
2017-11-27T12:13:04.421Z,6.55
2017-11-27T12:15:31.844Z,6.80
2017-11-27T12:17:59.309Z,5.80
2017-11-27T12:20:26.733Z,6.80
2017-11-27T12:22:54.151Z,6.07
2017-11-27T12:25:21.700Z,5.25
2017-11-27T12:27:49.126Z,5.80
2017-11-27T12:30:16.576Z,5.93
2017-11-27T12:32:43.993Z,4.95
2017-11-27T12:35:11.437Z,6.18
2017-11-27T12:37:38.849Z,4.95
2017-11-27T12:40:06.277Z,5.55
2017-11-27T12:42:33.706Z,5.35
2017-11-27T12:45:01.137Z,4.95
2017-11-27T12:47:28.561Z,5.07
2017-11-27T12:49:56.002Z,4.85
2017-11-27T12:52:23.458Z,5.62
2017-11-27T12:54:50.872Z,5.12
2017-11-27T12:57:18.301Z,5.40
2017-11-27T12:59:45.732Z,4.37
2017-11-27T13:02:13.161Z,5.90
2017-11-27T13:04:43.242Z,6.40
2017-11-27T13:07:11.508Z,6.97
2017-11-27T13:09:38.950Z,5.43
2017-11-27T13:12:06.379Z,5.45
2017-11-27T13:14:33.813Z,5.20
2017-11-27T13:17:01.238Z,5.72
2017-11-27T13:19:28.660Z,5.40
2017-11-27T13:21:56.097Z,5.60
2017-11-27T13:24:23.518Z,4.75
2017-11-27T13:26:50.959Z,5.25
2017-11-27T13:29:18.379Z,5.35
2017-11-27T13:31:46.870Z,4.72
2017-11-27T13:34:14.300Z,5.07
2017-11-27T13:36:41.718Z,5.93
2017-11-27T13:39:09.157Z,5.30
2017-11-27T13:41:36.603Z,4.68
2017-11-27T13:44:04.026Z,5.25
2017-11-27T13:46:31.464Z,5.43
2017-11-27T13:48:58.893Z,4.82
2017-11-27T13:51:26.310Z,5.00
2017-11-27T13:53:53.749Z,5.25
2017-11-27T13:56:21.169Z,4.93
2017-11-27T13:58:48.566Z,5.50
2017-11-27T14:01:16.034Z,5.57
2017-11-27T14:03:43.473Z,5.53
2017-11-27T14:06:10.897Z,5.30
2017-11-27T14:08:38.320Z,5.43
2017-11-27T14:11:05.744Z,6.05
2017-11-27T14:13:33.178Z,5.30
2017-11-27T14:16:00.608Z,6.40
2017-11-27T14:18:28.019Z,5.87
2017-11-27T14:20:55.437Z,6.27
2017-11-27T14:23:22.869Z,5.80
2017-11-27T14:25:50.292Z,6.00
2017-11-27T14:28:17.730Z,5.40
2017-11-27T14:30:45.149Z,6.87
2017-11-27T14:33:12.598Z,8.50
2017-11-27T14:35:40.022Z,6.30
2017-11-27T14:38:07.444Z,5.50
2017-11-27T14:40:34.889Z,5.12
2017-11-27T14:43:02.305Z,5.40
2017-11-27T14:45:29.745Z,5.78
2017-11-27T14:47:57.173Z,5.32
2017-11-27T14:50:24.604Z,5.30
2017-11-27T14:52:52.041Z,6.85
2017-11-27T14:55:19.469Z,5.20
2017-11-27T14:57:46.913Z,4.50
2017-11-27T15:00:14.332Z,5.30
2017-11-27T15:02:41.760Z,5.55
2017-11-27T15:05:09.223Z,5.18
2017-11-27T15:07:36.657Z,8.35
2017-11-27T15:10:04.078Z,6.07
2017-11-27T15:12:31.509Z,5.72
2017-11-27T15:14:58.940Z,5.30
2017-11-27T15:17:26.373Z,6.03
2017-11-27T15:19:53.800Z,4.90
2017-11-27T15:22:21.216Z,5.25
2017-11-27T15:24:48.654Z,4.95
2017-11-27T15:27:16.072Z,5.40
2017-11-27T15:29:43.500Z,5.40
2017-11-27T15:32:10.925Z,4.95
2017-11-27T15:34:38.355Z,5.87
2017-11-27T15:37:05.793Z,5.35
2017-11-27T15:39:33.221Z,5.15
2017-11-27T15:42:00.660Z,4.85
2017-11-27T15:44:28.105Z,5.30
2017-11-27T15:46:55.533Z,6.00
2017-11-27T15:49:22.970Z,5.40
2017-11-27T15:51:50.390Z,5.45
2017-11-27T15:54:17.824Z,5.30
2017-11-27T15:56:45.266Z,4.97
2017-11-27T15:59:12.693Z,5.07
2017-11-27T16:01:40.141Z,5.47
2017-11-27T16:04:07.620Z,5.90
2017-11-27T16:06:35.048Z,5.65
2017-11-27T16:09:02.522Z,5.12
2017-11-27T16:11:29.941Z,5.50
2017-11-27T16:13:57.376Z,4.97
2017-11-27T16:16:24.852Z,5.50
2017-11-27T16:18:52.276Z,5.55
2017-11-27T16:21:19.709Z,5.22
2017-11-27T16:23:47.149Z,4.90
2017-11-27T16:26:14.580Z,4.80
2017-11-27T16:28:42.009Z,4.40
2017-11-27T16:31:09.440Z,5.37
2017-11-27T16:33:36.889Z,5.60
2017-11-27T16:36:04.299Z,4.18
2017-11-27T16:38:31.741Z,4.32
2017-11-27T16:40:59.169Z,4.90
2017-11-27T16:43:26.606Z,5.28
2017-11-27T16:45:54.028Z,4.80
2017-11-27T16:48:21.465Z,5.32
2017-11-27T16:50:48.890Z,5.12
2017-11-27T16:53:16.332Z,4.78
2017-11-27T16:55:43.759Z,4.57
2017-11-27T16:58:11.161Z,4.43
2017-11-27T17:00:38.628Z,4.60
2017-11-27T17:03:06.053Z,4.25
2017-11-27T17:05:33.489Z,5.25
2017-11-27T17:08:00.926Z,6.05
2017-11-27T17:10:28.370Z,4.47
2017-11-27T17:12:55.807Z,4.40
2017-11-27T17:15:23.233Z,5.00
2017-11-27T17:17:50.668Z,4.95
2017-11-27T17:20:18.093Z,5.50
2017-11-27T17:22:45.517Z,4.12
2017-11-27T17:25:12.945Z,5.15
2017-11-27T17:27:41.229Z,5.40
2017-11-27T17:30:08.664Z,4.90
2017-11-27T17:32:36.076Z,4.18
2017-11-27T17:35:02.788Z,4.55
2017-11-27T17:37:30.368Z,4.68
2017-11-27T17:39:57.800Z,5.00
2017-11-27T17:42:25.233Z,4.35
2017-11-27T17:44:52.680Z,4.53
2017-11-27T17:47:20.110Z,4.50
2017-11-27T17:49:47.566Z,5.97
2017-11-27T17:52:14.992Z,5.53
2017-11-27T17:54:42.413Z,5.75
2017-11-27T17:57:09.833Z,5.72
2017-11-27T17:59:37.252Z,6.00
2017-11-27T18:02:04.685Z,5.00
2017-11-27T18:04:32.106Z,4.50
2017-11-27T18:06:59.523Z,5.30
2017-11-27T18:09:26.953Z,4.75
2017-11-27T18:11:54.380Z,4.25
2017-11-27T18:14:21.812Z,4.45
2017-11-27T18:16:49.227Z,4.60
2017-11-27T18:19:16.640Z,4.47
2017-11-27T18:21:44.073Z,4.50
2017-11-27T18:24:11.518Z,5.20
2017-11-27T18:26:38.944Z,4.75
2017-11-27T18:29:06.368Z,4.60
2017-11-27T18:31:33.816Z,4.90
2017-11-27T18:34:01.258Z,5.60
2017-11-27T18:36:28.689Z,4.53
2017-11-27T18:38:56.121Z,4.20
2017-11-27T18:41:23.551Z,4.50
2017-11-27T18:43:50.986Z,4.28
2017-11-27T18:46:18.404Z,4.80
2017-11-27T18:48:45.827Z,5.85
2017-11-27T18:51:13.269Z,4.82
2017-11-27T18:53:40.696Z,4.68
2017-11-27T18:56:08.113Z,4.80
2017-11-27T18:58:35.543Z,5.10
2017-11-27T19:01:02.985Z,4.78
2017-11-27T19:03:30.423Z,4.60
2017-11-27T19:05:59.589Z,5.20
2017-11-27T19:08:27.186Z,4.70
2017-11-27T19:10:54.606Z,4.12
2017-11-27T19:13:22.034Z,4.40
2017-11-27T19:15:49.473Z,4.87
2017-11-27T19:18:17.542Z,3.83
2017-11-27T19:20:45.055Z,4.57
2017-11-27T19:23:12.489Z,4.43
2017-11-27T19:25:40.149Z,4.50
2017-11-27T19:28:07.597Z,4.30
2017-11-27T19:30:39.785Z,4.53
2017-11-27T19:33:12.622Z,4.75
2017-11-27T19:35:40.075Z,5.07
2017-11-27T19:38:07.512Z,4.37
2017-11-27T19:40:34.948Z,4.22
2017-11-27T19:43:02.377Z,4.30
2017-11-27T19:45:29.797Z,5.15
2017-11-27T19:47:57.990Z,4.50
2017-11-27T19:50:26.109Z,4.20
2017-11-27T19:52:54.115Z,4.75
2017-11-27T19:55:24.551Z,5.85
2017-11-27T19:57:51.977Z,4.80
2017-11-27T20:00:19.419Z,4.30
2017-11-27T20:02:46.846Z,4.78
2017-11-27T20:05:14.281Z,4.57
2017-11-27T20:07:41.702Z,4.95
2017-11-27T20:10:13.829Z,4.70
2017-11-27T20:12:42.020Z,5.22
2017-11-27T20:15:09.466Z,4.90
2017-11-27T20:17:36.892Z,4.35
2017-11-27T20:20:04.680Z,4.32
2017-11-27T20:22:32.128Z,4.62
2017-11-27T20:24:59.545Z,5.07
2017-11-27T20:27:27.043Z,4.82
2017-11-27T20:29:54.473Z,4.25
2017-11-27T20:32:22.113Z,6.30
2017-11-27T20:34:49.552Z,4.15
2017-11-27T20:37:17.300Z,4.95
2017-11-27T20:39:44.736Z,4.68
2017-11-27T20:42:12.160Z,4.55
2017-11-27T20:44:41.563Z,4.55
2017-11-27T20:47:09.045Z,4.75
2017-11-27T20:49:36.484Z,4.35
2017-11-27T20:52:03.971Z,4.40
2017-11-27T20:54:31.401Z,4.15
2017-11-27T20:56:58.829Z,4.30
2017-11-27T20:59:28.670Z,5.15
2017-11-27T21:01:57.135Z,5.20
2017-11-27T21:04:28.721Z,5.07
2017-11-27T21:06:56.249Z,4.45
2017-11-27T21:09:23.691Z,5.07
2017-11-27T21:11:51.131Z,4.30
2017-11-27T21:14:18.569Z,4.40
2017-11-27T21:16:45.976Z,4.60
2017-11-27T21:19:13.961Z,5.60
2017-11-27T21:21:41.385Z,4.70
2017-11-27T21:24:08.801Z,4.45
2017-11-27T21:26:37.619Z,4.75
2017-11-27T21:29:05.033Z,5.28
2017-11-27T21:31:31.760Z,4.95
2017-11-27T21:33:59.185Z,4.72
2017-11-27T21:36:26.659Z,4.50
2017-11-27T21:38:54.719Z,5.40
2017-11-27T21:41:22.136Z,6.10
2017-11-27T21:43:49.561Z,4.68
2017-11-27T21:46:16.996Z,5.47
2017-11-27T21:48:44.418Z,4.70
2017-11-27T21:51:11.853Z,5.28
2017-11-27T21:53:39.276Z,5.70
2017-11-27T21:56:06.700Z,4.95
2017-11-27T21:58:34.123Z,5.07
2017-11-27T22:01:01.549Z,4.40
2017-11-27T22:03:28.981Z,4.68
2017-11-27T22:05:56.406Z,4.95
2017-11-27T22:08:23.869Z,4.93
2017-11-27T22:10:51.304Z,4.72
2017-11-27T22:13:18.718Z,4.97
2017-11-27T22:15:46.154Z,4.90
2017-11-27T22:18:13.568Z,5.20
2017-11-27T22:20:40.997Z,4.43
2017-11-27T22:23:08.423Z,4.65
2017-11-27T22:25:35.845Z,4.43
2017-11-27T22:28:03.266Z,4.97
2017-11-27T22:30:30.689Z,4.60
2017-11-27T22:32:58.126Z,4.57
2017-11-27T22:35:25.536Z,5.00
2017-11-27T22:37:52.948Z,4.30
2017-11-27T22:40:20.373Z,4.25
2017-11-27T22:42:47.789Z,4.90
2017-11-27T22:45:15.228Z,3.97
2017-11-27T22:47:42.645Z,3.87
2017-11-27T22:50:10.073Z,4.00
2017-11-27T22:52:37.558Z,4.10
2017-11-27T22:55:04.972Z,3.97
2017-11-27T22:57:32.404Z,3.60
2017-11-27T22:59:59.833Z,4.10
2017-11-27T23:02:27.262Z,4.47
2017-11-27T23:04:54.711Z,3.97
2017-11-27T23:07:22.134Z,3.90
2017-11-27T23:09:49.556Z,4.45
2017-11-27T23:12:16.983Z,3.85
2017-11-27T23:14:44.421Z,4.22
2017-11-27T23:17:11.831Z,4.12
2017-11-27T23:19:39.252Z,3.92
2017-11-27T23:22:06.681Z,4.05
2017-11-27T23:24:34.092Z,3.80
2017-11-27T23:27:01.525Z,3.70
2017-11-27T23:29:28.979Z,3.83
2017-11-27T23:31:56.437Z,3.95
2017-11-27T23:34:23.848Z,3.60
2017-11-27T23:36:51.259Z,3.90
2017-11-27T23:39:18.698Z,3.80
2017-11-27T23:41:46.113Z,3.95
2017-11-27T23:44:13.541Z,4.20
2017-11-27T23:46:40.951Z,4.12
2017-11-27T23:49:08.365Z,3.65
2017-11-27T23:51:35.816Z,3.75
2017-11-27T23:54:03.225Z,3.87
2017-11-27T23:56:30.662Z,3.65
2017-11-27T23:58:58.120Z,3.60
